sensor_id;sensor_type;location;lat;lon;timestamp;temperature;humidity
78212;SHT31;67490;52.086;5.122;2023-05-10T00:02:20;17.43;75.48
78212;SHT31;67490;52.086;5.122;2023-05-10T00:05:05;17.40;75.29
78212;SHT31;67490;52.086;5.122;2023-05-10T00:07:51;17.38;75.68
78212;SHT31;67490;52.086;5.122;2023-05-10T00:10:36;17.38;75.23
78212;SHT31;67490;52.086;5.122;2023-05-10T00:13:21;17.36;75.48
78212;SHT31;67490;52.086;5.122;2023-05-10T00:16:06;17.36;75.82
78212;SHT31;67490;52.086;5.122;2023-05-10T00:18:51;17.38;75.48
78212;SHT31;67490;52.086;5.122;2023-05-10T00:21:35;17.40;75.40
78212;SHT31;67490;52.086;5.122;2023-05-10T00:24:20;17.40;75.16
78212;SHT31;67490;52.086;5.122;2023-05-10T00:27:05;17.38;75.25
78212;SHT31;67490;52.086;5.122;2023-05-10T00:29:49;17.35;75.02
78212;SHT31;67490;52.086;5.122;2023-05-10T00:32:34;17.31;75.10
78212;SHT31;67490;52.086;5.122;2023-05-10T00:35:19;17.31;75.31
78212;SHT31;67490;52.086;5.122;2023-05-10T00:38:03;17.24;75.49
78212;SHT31;67490;52.086;5.122;2023-05-10T00:40:49;17.29;75.18
78212;SHT31;67490;52.086;5.122;2023-05-10T00:43:34;17.25;75.27
78212;SHT31;67490;52.086;5.122;2023-05-10T00:46:18;17.16;75.48
78212;SHT31;67490;52.086;5.122;2023-05-10T00:49:04;17.18;75.63
78212;SHT31;67490;52.086;5.122;2023-05-10T00:51:49;17.07;75.85
78212;SHT31;67490;52.086;5.122;2023-05-10T00:54:34;17.03;76.26
78212;SHT31;67490;52.086;5.122;2023-05-10T00:57:20;17.04;76.66
78212;SHT31;67490;52.086;5.122;2023-05-10T01:00:06;17.10;76.17
78212;SHT31;67490;52.086;5.122;2023-05-10T01:02:50;17.12;75.90
78212;SHT31;67490;52.086;5.122;2023-05-10T01:05:35;17.12;75.84
78212;SHT31;67490;52.086;5.122;2023-05-10T01:08:20;17.04;75.83
78212;SHT31;67490;52.086;5.122;2023-05-10T01:11:05;16.91;75.88
78212;SHT31;67490;52.086;5.122;2023-05-10T01:13:56;16.87;76.23
78212;SHT31;67490;52.086;5.122;2023-05-10T01:16:42;16.84;76.26
78212;SHT31;67490;52.086;5.122;2023-05-10T01:19:29;16.83;75.76
78212;SHT31;67490;52.086;5.122;2023-05-10T01:25:48;16.70;75.84
78212;SHT31;67490;52.086;5.122;2023-05-10T01:32:22;16.63;75.75
78212;SHT31;67490;52.086;5.122;2023-05-10T01:35:17;16.44;75.81
78212;SHT31;67490;52.086;5.122;2023-05-10T01:38:14;16.39;76.33
78212;SHT31;67490;52.086;5.122;2023-05-10T01:41:11;16.27;76.30
78212;SHT31;67490;52.086;5.122;2023-05-10T01:44:03;16.19;76.86
78212;SHT31;67490;52.086;5.122;2023-05-10T01:46:56;16.09;76.57
78212;SHT31;67490;52.086;5.122;2023-05-10T01:49:47;16.10;76.90
78212;SHT31;67490;52.086;5.122;2023-05-10T01:52:35;15.98;76.67
78212;SHT31;67490;52.086;5.122;2023-05-10T01:55:24;15.92;76.79
78212;SHT31;67490;52.086;5.122;2023-05-10T01:58:13;15.84;77.20
78212;SHT31;67490;52.086;5.122;2023-05-10T02:01:01;15.77;77.28
78212;SHT31;67490;52.086;5.122;2023-05-10T02:03:49;15.79;77.51
78212;SHT31;67490;52.086;5.122;2023-05-10T02:06:38;15.79;77.40
78212;SHT31;67490;52.086;5.122;2023-05-10T02:09:26;15.78;77.69
78212;SHT31;67490;52.086;5.122;2023-05-10T02:12:14;15.82;77.78
78212;SHT31;67490;52.086;5.122;2023-05-10T02:15:02;15.84;77.76
78212;SHT31;67490;52.086;5.122;2023-05-10T02:17:49;15.94;77.43
78212;SHT31;67490;52.086;5.122;2023-05-10T02:20:35;16.01;77.66
78212;SHT31;67490;52.086;5.122;2023-05-10T02:23:23;16.13;77.35
78212;SHT31;67490;52.086;5.122;2023-05-10T02:26:10;16.25;77.08
78212;SHT31;67490;52.086;5.122;2023-05-10T02:28:58;16.20;76.61
78212;SHT31;67490;52.086;5.122;2023-05-10T02:31:43;16.06;76.78
78212;SHT31;67490;52.086;5.122;2023-05-10T02:34:29;16.15;76.86
78212;SHT31;67490;52.086;5.122;2023-05-10T02:37:18;16.23;76.71
78212;SHT31;67490;52.086;5.122;2023-05-10T02:40:06;16.29;76.11
78212;SHT31;67490;52.086;5.122;2023-05-10T02:42:52;16.26;76.29
78212;SHT31;67490;52.086;5.122;2023-05-10T02:45:40;16.26;76.23
78212;SHT31;67490;52.086;5.122;2023-05-10T02:48:24;16.27;75.84
78212;SHT31;67490;52.086;5.122;2023-05-10T02:51:12;16.22;76.44
78212;SHT31;67490;52.086;5.122;2023-05-10T02:54:07;16.20;76.43
78212;SHT31;67490;52.086;5.122;2023-05-10T02:56:58;16.20;76.48
78212;SHT31;67490;52.086;5.122;2023-05-10T02:59:45;16.23;76.36
78212;SHT31;67490;52.086;5.122;2023-05-10T03:02:30;16.27;76.34
78212;SHT31;67490;52.086;5.122;2023-05-10T03:05:14;16.22;76.29
78212;SHT31;67490;52.086;5.122;2023-05-10T03:07:59;16.22;76.30
78212;SHT31;67490;52.086;5.122;2023-05-10T03:10:55;16.22;76.47
78212;SHT31;67490;52.086;5.122;2023-05-10T03:13:54;16.20;76.15
78212;SHT31;67490;52.086;5.122;2023-05-10T03:16:44;16.12;76.71
78212;SHT31;67490;52.086;5.122;2023-05-10T03:19:39;15.96;77.02
78212;SHT31;67490;52.086;5.122;2023-05-10T03:22:34;16.05;77.33
78212;SHT31;67490;52.086;5.122;2023-05-10T03:25:21;16.20;77.00
78212;SHT31;67490;52.086;5.122;2023-05-10T03:28:07;16.25;76.43
78212;SHT31;67490;52.086;5.122;2023-05-10T03:30:55;16.22;76.75
78212;SHT31;67490;52.086;5.122;2023-05-10T03:33:46;16.22;76.70
78212;SHT31;67490;52.086;5.122;2023-05-10T03:36:31;16.20;76.47
78212;SHT31;67490;52.086;5.122;2023-05-10T03:39:16;16.12;76.97
78212;SHT31;67490;52.086;5.122;2023-05-10T03:42:00;16.25;77.10
78212;SHT31;67490;52.086;5.122;2023-05-10T03:44:45;16.30;76.63
78212;SHT31;67490;52.086;5.122;2023-05-10T03:47:31;16.29;76.29
78212;SHT31;67490;52.086;5.122;2023-05-10T03:50:15;16.33;76.71
78212;SHT31;67490;52.086;5.122;2023-05-10T03:53:00;16.32;76.56
78212;SHT31;67490;52.086;5.122;2023-05-10T03:55:44;16.33;76.48
78212;SHT31;67490;52.086;5.122;2023-05-10T03:58:29;16.29;76.44
78212;SHT31;67490;52.086;5.122;2023-05-10T04:01:13;16.36;76.73
78212;SHT31;67490;52.086;5.122;2023-05-10T04:03:59;16.43;76.60
78212;SHT31;67490;52.086;5.122;2023-05-10T04:06:44;16.50;76.23
78212;SHT31;67490;52.086;5.122;2023-05-10T04:09:28;16.59;76.08
78212;SHT31;67490;52.086;5.122;2023-05-10T04:12:13;16.67;75.98
78212;SHT31;67490;52.086;5.122;2023-05-10T04:14:57;16.74;75.81
78212;SHT31;67490;52.086;5.122;2023-05-10T04:17:42;16.68;75.39
78212;SHT31;67490;52.086;5.122;2023-05-10T04:20:27;16.59;75.71
78212;SHT31;67490;52.086;5.122;2023-05-10T04:23:12;16.59;75.31
78212;SHT31;67490;52.086;5.122;2023-05-10T04:26:01;16.57;75.67
78212;SHT31;67490;52.086;5.122;2023-05-10T04:28:46;16.60;75.73
78212;SHT31;67490;52.086;5.122;2023-05-10T04:31:30;16.57;75.26
78212;SHT31;67490;52.086;5.122;2023-05-10T04:34:15;16.47;75.79
78212;SHT31;67490;52.086;5.122;2023-05-10T04:37:01;16.53;75.74
78212;SHT31;67490;52.086;5.122;2023-05-10T04:39:46;16.59;75.67
78212;SHT31;67490;52.086;5.122;2023-05-10T04:42:30;16.56;75.79
78212;SHT31;67490;52.086;5.122;2023-05-10T04:45:14;16.64;76.10
78212;SHT31;67490;52.086;5.122;2023-05-10T04:47:59;16.73;75.89
78212;SHT31;67490;52.086;5.122;2023-05-10T04:50:44;16.78;75.40
78212;SHT31;67490;52.086;5.122;2023-05-10T04:53:29;16.81;75.33
78212;SHT31;67490;52.086;5.122;2023-05-10T04:56:14;16.84;75.45
78212;SHT31;67490;52.086;5.122;2023-05-10T04:58:58;16.88;75.54
78212;SHT31;67490;52.086;5.122;2023-05-10T05:01:43;16.96;75.42
78212;SHT31;67490;52.086;5.122;2023-05-10T05:04:27;16.87;74.61
78212;SHT31;67490;52.086;5.122;2023-05-10T05:07:12;16.78;74.69
78212;SHT31;67490;52.086;5.122;2023-05-10T05:09:58;16.77;74.87
78212;SHT31;67490;52.086;5.122;2023-05-10T05:12:42;16.78;75.06
78212;SHT31;67490;52.086;5.122;2023-05-10T05:15:27;16.81;75.30
78212;SHT31;67490;52.086;5.122;2023-05-10T05:18:12;16.74;74.52
78212;SHT31;67490;52.086;5.122;2023-05-10T05:20:56;16.64;74.72
78212;SHT31;67490;52.086;5.122;2023-05-10T05:23:40;16.63;74.54
78212;SHT31;67490;52.086;5.122;2023-05-10T05:26:26;16.57;75.48
78212;SHT31;67490;52.086;5.122;2023-05-10T05:29:11;16.53;76.29
78212;SHT31;67490;52.086;5.122;2023-05-10T05:31:55;16.57;75.70
78212;SHT31;67490;52.086;5.122;2023-05-10T05:34:40;16.54;74.47
78212;SHT31;67490;52.086;5.122;2023-05-10T05:37:24;16.54;74.87
78212;SHT31;67490;52.086;5.122;2023-05-10T05:40:12;16.46;75.00
78212;SHT31;67490;52.086;5.122;2023-05-10T05:42:58;16.42;75.10
78212;SHT31;67490;52.086;5.122;2023-05-10T05:45:42;16.40;74.76
78212;SHT31;67490;52.086;5.122;2023-05-10T05:48:28;16.34;73.96
78212;SHT31;67490;52.086;5.122;2023-05-10T05:51:13;16.29;74.13
78212;SHT31;67490;52.086;5.122;2023-05-10T05:53:57;16.32;74.19
78212;SHT31;67490;52.086;5.122;2023-05-10T05:56:42;16.34;74.33
78212;SHT31;67490;52.086;5.122;2023-05-10T05:59:29;16.43;74.58
78212;SHT31;67490;52.086;5.122;2023-05-10T06:02:13;16.49;73.64
78212;SHT31;67490;52.086;5.122;2023-05-10T06:04:58;16.53;73.40
78212;SHT31;67490;52.086;5.122;2023-05-10T06:07:42;16.56;73.40
78212;SHT31;67490;52.086;5.122;2023-05-10T06:10:27;16.63;73.67
78212;SHT31;67490;52.086;5.122;2023-05-10T06:13:12;16.64;73.00
78212;SHT31;67490;52.086;5.122;2023-05-10T06:15:58;16.64;71.99
78212;SHT31;67490;52.086;5.122;2023-05-10T06:18:42;16.70;72.29
78212;SHT31;67490;52.086;5.122;2023-05-10T06:21:27;16.67;72.51
78212;SHT31;67490;52.086;5.122;2023-05-10T06:24:11;16.68;72.95
78212;SHT31;67490;52.086;5.122;2023-05-10T06:26:56;16.71;72.24
78212;SHT31;67490;52.086;5.122;2023-05-10T06:29:40;16.70;72.30
78212;SHT31;67490;52.086;5.122;2023-05-10T06:32:26;16.67;72.74
78212;SHT31;67490;52.086;5.122;2023-05-10T06:35:11;16.75;73.17
78212;SHT31;67490;52.086;5.122;2023-05-10T06:37:55;16.87;72.73
78212;SHT31;67490;52.086;5.122;2023-05-10T06:40:41;16.96;72.32
78212;SHT31;67490;52.086;5.122;2023-05-10T06:43:25;17.11;71.90
78212;SHT31;67490;52.086;5.122;2023-05-10T06:46:10;17.29;71.57
78212;SHT31;67490;52.086;5.122;2023-05-10T06:48:56;17.31;69.99
78212;SHT31;67490;52.086;5.122;2023-05-10T06:51:41;17.36;71.04
78212;SHT31;67490;52.086;5.122;2023-05-10T06:54:25;17.39;71.18
78212;SHT31;67490;52.086;5.122;2023-05-10T06:57:09;17.45;70.76
78212;SHT31;67490;52.086;5.122;2023-05-10T06:59:53;17.50;69.57
78212;SHT31;67490;52.086;5.122;2023-05-10T07:02:39;17.42;69.38
78212;SHT31;67490;52.086;5.122;2023-05-10T07:05:25;17.38;69.76
78212;SHT31;67490;52.086;5.122;2023-05-10T07:08:11;17.39;69.84
78212;SHT31;67490;52.086;5.122;2023-05-10T07:11:01;17.36;70.12
78212;SHT31;67490;52.086;5.122;2023-05-10T07:13:45;17.43;71.14
78212;SHT31;67490;52.086;5.122;2023-05-10T07:16:30;17.47;70.03
78212;SHT31;67490;52.086;5.122;2023-05-10T07:19:14;17.45;69.98
78212;SHT31;67490;52.086;5.122;2023-05-10T07:22:00;17.39;69.46
78212;SHT31;67490;52.086;5.122;2023-05-10T07:24:45;17.22;69.83
78212;SHT31;67490;52.086;5.122;2023-05-10T07:27:30;17.22;70.35
78212;SHT31;67490;52.086;5.122;2023-05-10T07:30:15;17.24;69.57
78212;SHT31;67490;52.086;5.122;2023-05-10T07:32:59;17.28;70.89
78212;SHT31;67490;52.086;5.122;2023-05-10T07:35:44;17.24;69.93
78212;SHT31;67490;52.086;5.122;2023-05-10T07:38:30;17.25;70.39
78212;SHT31;67490;52.086;5.122;2023-05-10T07:41:14;17.28;70.18
78212;SHT31;67490;52.086;5.122;2023-05-10T07:43:59;17.28;69.80
78212;SHT31;67490;52.086;5.122;2023-05-10T07:46:44;17.33;70.42
78212;SHT31;67490;52.086;5.122;2023-05-10T07:49:28;17.32;69.54
78212;SHT31;67490;52.086;5.122;2023-05-10T07:52:13;17.36;72.44
78212;SHT31;67490;52.086;5.122;2023-05-10T07:54:59;17.43;70.31
78212;SHT31;67490;52.086;5.122;2023-05-10T07:57:43;17.54;70.77
78212;SHT31;67490;52.086;5.122;2023-05-10T08:00:28;17.72;69.91
78212;SHT31;67490;52.086;5.122;2023-05-10T08:03:12;17.69;69.64
78212;SHT31;67490;52.086;5.122;2023-05-10T08:05:57;17.73;69.74
78212;SHT31;67490;52.086;5.122;2023-05-10T08:08:42;17.74;69.53
78212;SHT31;67490;52.086;5.122;2023-05-10T08:11:27;17.83;69.13
78212;SHT31;67490;52.086;5.122;2023-05-10T08:14:12;17.87;69.13
78212;SHT31;67490;52.086;5.122;2023-05-10T08:16:57;17.91;68.63
78212;SHT31;67490;52.086;5.122;2023-05-10T08:19:41;17.83;67.98
78212;SHT31;67490;52.086;5.122;2023-05-10T08:22:26;17.91;67.88
78212;SHT31;67490;52.086;5.122;2023-05-10T08:25:10;17.93;67.91
78212;SHT31;67490;52.086;5.122;2023-05-10T08:27:56;17.97;68.70
78212;SHT31;67490;52.086;5.122;2023-05-10T08:30:41;17.98;67.51
78212;SHT31;67490;52.086;5.122;2023-05-10T08:33:25;17.93;67.98
78212;SHT31;67490;52.086;5.122;2023-05-10T08:36:09;17.86;67.79
78212;SHT31;67490;52.086;5.122;2023-05-10T08:38:54;17.83;68.58
78212;SHT31;67490;52.086;5.122;2023-05-10T08:41:39;17.87;69.02
78212;SHT31;67490;52.086;5.122;2023-05-10T08:44:26;17.94;68.26
78212;SHT31;67490;52.086;5.122;2023-05-10T08:47:11;17.94;67.91
78212;SHT31;67490;52.086;5.122;2023-05-10T08:49:58;18.05;68.39
78212;SHT31;67490;52.086;5.122;2023-05-10T08:52:47;18.05;67.83
78212;SHT31;67490;52.086;5.122;2023-05-10T08:55:32;18.07;67.90
78212;SHT31;67490;52.086;5.122;2023-05-10T08:58:17;18.07;67.77
78212;SHT31;67490;52.086;5.122;2023-05-10T09:01:05;18.04;66.83
78212;SHT31;67490;52.086;5.122;2023-05-10T09:03:50;18.03;66.77
78212;SHT31;67490;52.086;5.122;2023-05-10T09:06:35;18.00;67.30
78212;SHT31;67490;52.086;5.122;2023-05-10T09:09:21;17.98;67.65
78212;SHT31;67490;52.086;5.122;2023-05-10T09:12:06;17.97;66.88
78212;SHT31;67490;52.086;5.122;2023-05-10T09:14:54;18.03;67.27
78212;SHT31;67490;52.086;5.122;2023-05-10T09:17:40;18.15;66.53
78212;SHT31;67490;52.086;5.122;2023-05-10T09:20:25;18.28;66.46
78212;SHT31;67490;52.086;5.122;2023-05-10T09:23:09;18.37;66.77
78212;SHT31;67490;52.086;5.122;2023-05-10T09:26:02;18.38;67.22
78212;SHT31;67490;52.086;5.122;2023-05-10T09:28:53;18.47;67.64
78212;SHT31;67490;52.086;5.122;2023-05-10T09:31:46;18.56;66.29
78212;SHT31;67490;52.086;5.122;2023-05-10T09:34:33;18.65;65.65
78212;SHT31;67490;52.086;5.122;2023-05-10T09:37:29;18.59;65.82
78212;SHT31;67490;52.086;5.122;2023-05-10T09:40:15;18.55;66.59
78212;SHT31;67490;52.086;5.122;2023-05-10T09:43:02;18.56;66.28
78212;SHT31;67490;52.086;5.122;2023-05-10T09:45:48;18.55;65.96
78212;SHT31;67490;52.086;5.122;2023-05-10T09:48:41;18.63;65.80
78212;SHT31;67490;52.086;5.122;2023-05-10T09:51:27;18.63;65.51
78212;SHT31;67490;52.086;5.122;2023-05-10T09:54:13;18.61;65.78
78212;SHT31;67490;52.086;5.122;2023-05-10T09:56:59;18.69;65.38
78212;SHT31;67490;52.086;5.122;2023-05-10T09:59:44;18.77;66.20
78212;SHT31;67490;52.086;5.122;2023-05-10T10:02:29;18.63;65.21
78212;SHT31;67490;52.086;5.122;2023-05-10T10:05:14;18.30;66.04
78212;SHT31;67490;52.086;5.122;2023-05-10T10:08:03;18.25;66.44
78212;SHT31;67490;52.086;5.122;2023-05-10T10:10:48;18.31;67.10
78212;SHT31;67490;52.086;5.122;2023-05-10T10:13:33;18.30;67.05
78212;SHT31;67490;52.086;5.122;2023-05-10T10:16:18;18.41;67.15
78212;SHT31;67490;52.086;5.122;2023-05-10T10:19:02;18.51;66.84
78212;SHT31;67490;52.086;5.122;2023-05-10T10:21:47;18.53;66.63
78212;SHT31;67490;52.086;5.122;2023-05-10T10:24:33;18.44;66.47
78212;SHT31;67490;52.086;5.122;2023-05-10T10:27:24;18.27;66.41
78212;SHT31;67490;52.086;5.122;2023-05-10T10:30:21;18.15;67.41
78212;SHT31;67490;52.086;5.122;2023-05-10T10:33:40;18.14;67.69
78212;SHT31;67490;52.086;5.122;2023-05-10T10:36:32;18.27;67.41
78212;SHT31;67490;52.086;5.122;2023-05-10T10:39:19;18.38;66.98
78212;SHT31;67490;52.086;5.122;2023-05-10T10:42:06;18.48;66.47
78212;SHT31;67490;52.086;5.122;2023-05-10T10:45:13;18.51;65.83
78212;SHT31;67490;52.086;5.122;2023-05-10T10:48:19;18.69;66.30
78212;SHT31;67490;52.086;5.122;2023-05-10T10:51:04;18.86;66.65
78212;SHT31;67490;52.086;5.122;2023-05-10T10:53:48;19.00;65.13
78212;SHT31;67490;52.086;5.122;2023-05-10T10:56:33;19.11;65.46
78212;SHT31;67490;52.086;5.122;2023-05-10T10:59:27;19.23;64.55
78212;SHT31;67490;52.086;5.122;2023-05-10T11:02:33;19.37;64.65
78212;SHT31;67490;52.086;5.122;2023-05-10T11:05:39;19.53;63.81
78212;SHT31;67490;52.086;5.122;2023-05-10T11:08:27;19.61;63.46
78212;SHT31;67490;52.086;5.122;2023-05-10T11:11:15;19.58;63.33
78212;SHT31;67490;52.086;5.122;2023-05-10T11:14:04;19.53;62.58
78212;SHT31;67490;52.086;5.122;2023-05-10T11:16:51;19.49;62.59
78212;SHT31;67490;52.086;5.122;2023-05-10T11:19:35;19.26;62.56
78212;SHT31;67490;52.086;5.122;2023-05-10T11:22:24;19.24;62.62
78212;SHT31;67490;52.086;5.122;2023-05-10T11:25:09;19.20;63.45
78212;SHT31;67490;52.086;5.122;2023-05-10T11:27:54;19.23;63.80
78212;SHT31;67490;52.086;5.122;2023-05-10T11:30:39;19.37;63.46
78212;SHT31;67490;52.086;5.122;2023-05-10T11:33:25;19.53;62.39
78212;SHT31;67490;52.086;5.122;2023-05-10T11:36:11;19.54;61.78
78212;SHT31;67490;52.086;5.122;2023-05-10T11:38:56;19.60;61.97
78212;SHT31;67490;52.086;5.122;2023-05-10T11:41:41;19.74;62.71
78212;SHT31;67490;52.086;5.122;2023-05-10T11:44:29;19.91;62.84
78212;SHT31;67490;52.086;5.122;2023-05-10T11:47:13;19.93;61.29
78212;SHT31;67490;52.086;5.122;2023-05-10T11:50:00;19.91;61.95
78212;SHT31;67490;52.086;5.122;2023-05-10T11:52:44;19.91;61.74
78212;SHT31;67490;52.086;5.122;2023-05-10T11:55:29;19.89;62.26
78212;SHT31;67490;52.086;5.122;2023-05-10T11:58:18;19.78;62.13
78212;SHT31;67490;52.086;5.122;2023-05-10T12:01:06;19.71;62.30
78212;SHT31;67490;52.086;5.122;2023-05-10T12:03:53;19.38;64.17
78212;SHT31;67490;52.086;5.122;2023-05-10T12:06:40;19.28;65.19
78212;SHT31;67490;52.086;5.122;2023-05-10T12:09:25;19.31;65.37
78212;SHT31;67490;52.086;5.122;2023-05-10T12:12:10;19.24;65.13
78212;SHT31;67490;52.086;5.122;2023-05-10T12:14:54;19.28;65.86
78212;SHT31;67490;52.086;5.122;2023-05-10T12:17:39;19.14;65.40
78212;SHT31;67490;52.086;5.122;2023-05-10T12:20:27;18.99;66.38
78212;SHT31;67490;52.086;5.122;2023-05-10T12:23:13;18.90;67.02
78212;SHT31;67490;52.086;5.122;2023-05-10T12:26:02;18.69;69.07
78212;SHT31;67490;52.086;5.122;2023-05-10T12:28:46;18.17;71.60
78212;SHT31;67490;52.086;5.122;2023-05-10T12:31:31;17.77;73.70
78212;SHT31;67490;52.086;5.122;2023-05-10T12:34:23;17.65;74.39
78212;SHT31;67490;52.086;5.122;2023-05-10T12:37:07;17.43;74.71
78212;SHT31;67490;52.086;5.122;2023-05-10T12:39:53;17.26;75.26
78212;SHT31;67490;52.086;5.122;2023-05-10T12:42:39;17.29;75.74
78212;SHT31;67490;52.086;5.122;2023-05-10T12:45:23;17.26;75.22
78212;SHT31;67490;52.086;5.122;2023-05-10T12:48:08;17.24;75.58
78212;SHT31;67490;52.086;5.122;2023-05-10T12:50:53;17.14;75.74
78212;SHT31;67490;52.086;5.122;2023-05-10T12:53:37;17.14;75.62
78212;SHT31;67490;52.086;5.122;2023-05-10T12:56:23;17.16;76.12
78212;SHT31;67490;52.086;5.122;2023-05-10T12:59:08;17.22;76.56
78212;SHT31;67490;52.086;5.122;2023-05-10T13:01:52;17.26;76.07
78212;SHT31;67490;52.086;5.122;2023-05-10T13:04:37;17.31;75.95
78212;SHT31;67490;52.086;5.122;2023-05-10T13:07:24;17.38;75.88
78212;SHT31;67490;52.086;5.122;2023-05-10T13:10:09;17.46;76.17
78212;SHT31;67490;52.086;5.122;2023-05-10T13:12:55;17.52;75.70
78212;SHT31;67490;52.086;5.122;2023-05-10T13:15:40;17.50;75.45
78212;SHT31;67490;52.086;5.122;2023-05-10T13:18:24;17.56;75.07
78212;SHT31;67490;52.086;5.122;2023-05-10T13:21:10;17.61;75.64
78212;SHT31;67490;52.086;5.122;2023-05-10T13:23:55;17.66;75.36
78212;SHT31;67490;52.086;5.122;2023-05-10T13:26:40;17.67;75.14
78212;SHT31;67490;52.086;5.122;2023-05-10T13:29:26;17.73;75.38
78212;SHT31;67490;52.086;5.122;2023-05-10T13:32:10;17.66;74.16
78212;SHT31;67490;52.086;5.122;2023-05-10T13:34:55;17.65;74.73
78212;SHT31;67490;52.086;5.122;2023-05-10T13:37:39;17.66;74.47
78212;SHT31;67490;52.086;5.122;2023-05-10T13:40:24;17.57;74.04
78212;SHT31;67490;52.086;5.122;2023-05-10T13:43:08;17.59;74.68
78212;SHT31;67490;52.086;5.122;2023-05-10T13:45:54;17.66;74.53
78212;SHT31;67490;52.086;5.122;2023-05-10T13:48:39;17.67;74.49
78212;SHT31;67490;52.086;5.122;2023-05-10T13:51:23;17.74;74.76
78212;SHT31;67490;52.086;5.122;2023-05-10T13:54:08;17.77;73.87
78212;SHT31;67490;52.086;5.122;2023-05-10T13:56:52;17.76;74.35
78212;SHT31;67490;52.086;5.122;2023-05-10T13:59:37;17.79;73.96
78212;SHT31;67490;52.086;5.122;2023-05-10T14:02:23;17.83;74.46
78212;SHT31;67490;52.086;5.122;2023-05-10T14:05:08;17.86;74.65
78212;SHT31;67490;52.086;5.122;2023-05-10T14:07:53;17.94;74.60
78212;SHT31;67490;52.086;5.122;2023-05-10T14:10:38;17.94;74.72
78212;SHT31;67490;52.086;5.122;2023-05-10T14:13:22;17.91;74.21
78212;SHT31;67490;52.086;5.122;2023-05-10T14:16:06;17.86;73.06
78212;SHT31;67490;52.086;5.122;2023-05-10T14:18:52;17.80;73.87
78212;SHT31;67490;52.086;5.122;2023-05-10T14:21:37;17.87;74.27
78212;SHT31;67490;52.086;5.122;2023-05-10T14:24:22;17.96;73.86
78212;SHT31;67490;52.086;5.122;2023-05-10T14:27:06;18.01;73.79
78212;SHT31;67490;52.086;5.122;2023-05-10T14:29:51;18.04;74.06
78212;SHT31;67490;52.086;5.122;2023-05-10T14:32:35;18.00;72.87
78212;SHT31;67490;52.086;5.122;2023-05-10T14:35:22;18.01;73.88
78212;SHT31;67490;52.086;5.122;2023-05-10T14:38:06;18.05;73.82
78212;SHT31;67490;52.086;5.122;2023-05-10T14:40:50;18.07;74.31
78212;SHT31;67490;52.086;5.122;2023-05-10T14:43:35;18.10;73.52
78212;SHT31;67490;52.086;5.122;2023-05-10T14:46:20;18.17;73.49
78212;SHT31;67490;52.086;5.122;2023-05-10T14:49:04;18.27;72.51
78212;SHT31;67490;52.086;5.122;2023-05-10T14:51:50;18.35;72.68
78212;SHT31;67490;52.086;5.122;2023-05-10T14:54:35;18.28;72.91
78212;SHT31;67490;52.086;5.122;2023-05-10T14:57:19;18.30;72.30
78212;SHT31;67490;52.086;5.122;2023-05-10T15:00:05;18.31;72.50
78212;SHT31;67490;52.086;5.122;2023-05-10T15:02:49;18.30;72.70
78212;SHT31;67490;52.086;5.122;2023-05-10T15:05:34;18.32;72.50
78212;SHT31;67490;52.086;5.122;2023-05-10T15:08:20;18.37;72.91
78212;SHT31;67490;52.086;5.122;2023-05-10T15:11:04;18.28;73.24
78212;SHT31;67490;52.086;5.122;2023-05-10T15:13:49;18.37;72.25
78212;SHT31;67490;52.086;5.122;2023-05-10T15:16:33;18.37;71.91
78212;SHT31;67490;52.086;5.122;2023-05-10T15:19:19;18.30;71.56
78212;SHT31;67490;52.086;5.122;2023-05-10T15:22:04;18.35;71.70
78212;SHT31;67490;52.086;5.122;2023-05-10T15:24:50;18.42;72.52
78212;SHT31;67490;52.086;5.122;2023-05-10T15:27:35;18.38;73.41
78212;SHT31;67490;52.086;5.122;2023-05-10T15:30:19;18.44;73.50
78212;SHT31;67490;52.086;5.122;2023-05-10T15:33:04;18.48;73.08
78212;SHT31;67490;52.086;5.122;2023-05-10T15:35:48;18.45;71.75
78212;SHT31;67490;52.086;5.122;2023-05-10T15:38:33;18.48;72.83
78212;SHT31;67490;52.086;5.122;2023-05-10T15:41:19;18.49;73.32
78212;SHT31;67490;52.086;5.122;2023-05-10T15:44:03;18.59;72.90
78212;SHT31;67490;52.086;5.122;2023-05-10T15:46:48;18.53;72.89
78212;SHT31;67490;52.086;5.122;2023-05-10T15:49:32;18.51;73.64
78212;SHT31;67490;52.086;5.122;2023-05-10T15:52:17;18.58;72.79
78212;SHT31;67490;52.086;5.122;2023-05-10T15:55:02;18.48;73.38
78212;SHT31;67490;52.086;5.122;2023-05-10T15:57:48;18.47;73.01
78212;SHT31;67490;52.086;5.122;2023-05-10T16:00:33;18.45;73.01
78212;SHT31;67490;52.086;5.122;2023-05-10T16:03:17;18.44;73.13
78212;SHT31;67490;52.086;5.122;2023-05-10T16:06:02;18.44;72.80
78212;SHT31;67490;52.086;5.122;2023-05-10T16:08:47;18.42;72.51
78212;SHT31;67490;52.086;5.122;2023-05-10T16:11:31;18.51;71.45
78212;SHT31;67490;52.086;5.122;2023-05-10T16:14:17;18.61;72.47
78212;SHT31;67490;52.086;5.122;2023-05-10T16:17:04;18.63;71.33
78212;SHT31;67490;52.086;5.122;2023-05-10T16:19:48;18.65;71.46
78212;SHT31;67490;52.086;5.122;2023-05-10T16:22:33;18.55;71.97
78212;SHT31;67490;52.086;5.122;2023-05-10T16:25:18;18.58;72.72
78212;SHT31;67490;52.086;5.122;2023-05-10T16:28:02;18.62;72.78
78212;SHT31;67490;52.086;5.122;2023-05-10T16:30:48;18.72;71.29
78212;SHT31;67490;52.086;5.122;2023-05-10T16:33:33;18.73;70.91
78212;SHT31;67490;52.086;5.122;2023-05-10T16:36:17;18.65;70.81
78212;SHT31;67490;52.086;5.122;2023-05-10T16:39:02;18.65;71.33
78212;SHT31;67490;52.086;5.122;2023-05-10T16:41:47;18.61;71.09
78212;SHT31;67490;52.086;5.122;2023-05-10T16:44:31;18.53;71.45
78212;SHT31;67490;52.086;5.122;2023-05-10T16:47:17;18.52;71.88
78212;SHT31;67490;52.086;5.122;2023-05-10T16:50:03;18.51;71.46
78212;SHT31;67490;52.086;5.122;2023-05-10T16:52:48;18.41;70.70
78212;SHT31;67490;52.086;5.122;2023-05-10T16:55:32;18.28;71.13
78212;SHT31;67490;52.086;5.122;2023-05-10T16:58:17;18.28;71.56
78212;SHT31;67490;52.086;5.122;2023-05-10T17:01:01;18.32;70.89
78212;SHT31;67490;52.086;5.122;2023-05-10T17:03:47;18.34;71.93
78212;SHT31;67490;52.086;5.122;2023-05-10T17:06:34;18.41;71.43
78212;SHT31;67490;52.086;5.122;2023-05-10T17:09:18;18.32;71.41
78212;SHT31;67490;52.086;5.122;2023-05-10T17:12:03;18.45;71.57
78212;SHT31;67490;52.086;5.122;2023-05-10T17:14:48;18.42;70.69
78212;SHT31;67490;52.086;5.122;2023-05-10T17:17:32;18.48;71.02
78212;SHT31;67490;52.086;5.122;2023-05-10T17:20:18;18.40;71.62
78212;SHT31;67490;52.086;5.122;2023-05-10T17:23:03;18.32;71.19
78212;SHT31;67490;52.086;5.122;2023-05-10T17:25:48;18.35;71.47
78212;SHT31;67490;52.086;5.122;2023-05-10T17:28:32;18.38;69.34
78212;SHT31;67490;52.086;5.122;2023-05-10T17:31:17;18.38;70.83
78212;SHT31;67490;52.086;5.122;2023-05-10T17:34:02;18.38;70.55
78212;SHT31;67490;52.086;5.122;2023-05-10T17:36:47;18.31;69.66